Time;durP1;ratioP1;P1;durP2;ratioP2;P2;SDS_P1;SDS_P2;PMS_P1;PMS_P2;Temp;Humidity;BMP_temperature;BMP_pressure;BME280_temperature;BME280_humidity;BME280_pressure;Samples;Min_cycle;Max_cycle;Signal;HPM_P1;HPM_P2
2023/06/13 00:00:46;;;;;;;4.97;3.28;;;13.50;99.90;;;;;;4943182;29;20249;-79
2023/06/13 00:03:13;;;;;;;5.60;3.15;;;13.50;99.90;;;;;;4926645;29;20315;-80
2023/06/13 00:05:46;;;;;;;4.72;3.30;;;13.40;99.90;;;;;;4926512;29;20032;-79
2023/06/13 00:08:19;;;;;;;3.60;2.95;;;13.40;99.90;;;;;;4926472;29;20107;-78
2023/06/13 00:10:48;;;;;;;4.85;3.00;;;13.40;99.90;;;;;;4927292;29;20024;-79
2023/06/13 00:13:15;;;;;;;3.13;2.70;;;13.40;99.90;;;;;;4925656;29;20046;-80
2023/06/13 00:15:50;;;;;;;8.00;2.85;;;13.30;99.90;;;;;;4926176;29;20316;-80
2023/06/13 00:18:19;;;;;;;8.98;3.67;;;13.20;99.90;;;;;;4926158;29;20083;-79
2023/06/13 00:20:52;;;;;;;3.53;3.22;;;13.30;99.90;;;;;;4926623;29;20055;-79
2023/06/13 00:23:18;;;;;;;3.40;2.80;;;13.30;99.90;;;;;;4925960;29;20062;-79
2023/06/13 00:25:43;;;;;;;5.38;3.28;;;13.20;99.90;;;;;;4943187;29;20032;-79
2023/06/13 00:28:10;;;;;;;3.50;3.20;;;13.10;99.90;;;;;;4924870;29;20316;-79
2023/06/13 00:30:35;;;;;;;7.03;3.30;;;13.00;99.90;;;;;;4926065;29;20032;-78
2023/06/13 00:33:01;;;;;;;6.28;3.45;;;13.00;99.90;;;;;;4925378;29;20039;-79
2023/06/13 00:35:27;;;;;;;4.00;2.92;;;12.90;99.90;;;;;;4926197;29;20030;-79
2023/06/13 00:37:56;;;;;;;3.47;2.63;;;12.90;99.90;;;;;;4926045;29;20323;-78
2023/06/13 00:40:23;;;;;;;2.83;2.53;;;12.90;99.90;;;;;;4943152;29;20019;-78
2023/06/13 00:42:53;;;;;;;5.10;2.80;;;12.90;99.90;;;;;;4942062;29;20090;-79
2023/06/13 00:45:22;;;;;;;4.97;2.97;;;13.00;99.90;;;;;;4943698;29;20381;-79
2023/06/13 00:48:02;;;;;;;2.65;2.45;;;13.00;99.90;;;;;;4942756;29;20046;-79
2023/06/13 00:50:43;;;;;;;4.63;3.10;;;13.00;99.90;;;;;;4942059;29;20043;-79
2023/06/13 00:53:16;;;;;;;6.00;3.58;;;12.80;99.90;;;;;;4942451;29;20404;-79
2023/06/13 00:55:43;;;;;;;3.03;2.65;;;12.70;99.90;;;;;;4942901;29;20037;-79
2023/06/13 00:58:10;;;;;;;14.70;3.33;;;12.70;99.90;;;;;;4941574;29;20058;-79
2023/06/13 01:00:37;;;;;;;3.72;2.78;;;12.60;99.90;;;;;;4925303;29;20040;-78
2023/06/13 01:03:09;;;;;;;3.28;2.80;;;12.60;99.90;;;;;;4924952;29;20019;-78
2023/06/13 01:05:34;;;;;;;4.07;2.90;;;12.50;99.90;;;;;;4927934;29;20285;-80
2023/06/13 01:08:04;;;;;;;2.95;2.70;;;12.50;99.90;;;;;;4929022;29;20047;-79
2023/06/13 01:10:32;;;;;;;6.13;3.67;;;12.40;99.90;;;;;;4929562;29;20120;-80
2023/06/13 01:13:07;;;;;;;3.17;2.88;;;12.40;99.90;;;;;;4930049;29;20304;-80
2023/06/13 01:15:38;;;;;;;5.40;3.25;;;12.40;99.90;;;;;;4930284;29;20215;-80
2023/06/13 01:18:08;;;;;;;4.93;2.17;;;12.40;99.90;;;;;;4946954;29;20193;-80
2023/06/13 01:20:35;;;;;;;3.10;2.85;;;12.40;99.90;;;;;;4929928;29;20050;-80
2023/06/13 01:23:20;;;;;;;3.55;3.08;;;12.30;99.90;;;;;;4929003;29;20432;-79
2023/06/13 01:26:10;;;;;;;2.35;2.10;;;12.20;99.90;;;;;;4929877;29;20038;-79
2023/06/13 01:28:37;;;;;;;4.03;3.58;;;12.20;99.90;;;;;;4929112;29;20028;-79
2023/06/13 01:31:05;;;;;;;5.53;2.38;;;12.20;99.90;;;;;;4945415;29;20264;-79
2023/06/13 01:33:31;;;;;;;4.75;3.38;;;12.20;99.90;;;;;;4943894;29;20035;-79
2023/06/13 01:35:57;;;;;;;3.88;2.85;;;12.10;99.90;;;;;;4944757;29;20030;-79
2023/06/13 01:38:23;;;;;;;4.60;3.10;;;12.10;99.90;;;;;;4927240;29;20111;-79
2023/06/13 01:40:49;;;;;;;3.00;2.63;;;12.10;99.90;;;;;;4926775;29;20244;-80
2023/06/13 01:43:14;;;;;;;3.50;2.88;;;12.10;99.90;;;;;;4926926;29;20035;-79
2023/06/13 01:45:41;;;;;;;3.28;2.92;;;12.10;99.90;;;;;;4945097;29;20360;-79
2023/06/13 01:48:14;;;;;;;2.97;2.67;;;12.00;99.90;;;;;;4924921;29;20058;-79
2023/06/13 01:50:58;;;;;;;3.15;2.63;;;11.90;99.90;;;;;;4926245;29;20216;-79
2023/06/13 01:53:36;;;;;;;4.57;3.42;;;11.80;99.90;;;;;;4926427;29;20040;-79
2023/06/13 01:56:08;;;;;;;3.08;2.50;;;11.80;99.90;;;;;;4927178;29;20060;-79
2023/06/13 01:58:36;;;;;;;3.70;2.50;;;11.80;99.90;;;;;;4926673;29;20091;-79
2023/06/13 02:01:05;;;;;;;5.10;2.83;;;11.80;99.90;;;;;;4927118;29;20016;-80
2023/06/13 02:03:33;;;;;;;3.08;2.78;;;11.70;99.90;;;;;;4926147;29;20019;-78
2023/06/13 02:05:58;;;;;;;5.30;2.78;;;11.60;99.90;;;;;;4926739;29;20050;-79
2023/06/13 02:08:24;;;;;;;3.30;3.00;;;11.60;99.90;;;;;;4909709;29;20383;-78
2023/06/13 02:10:50;;;;;;;2.78;2.58;;;11.60;99.90;;;;;;4925074;29;20040;-79
2023/06/13 02:13:16;;;;;;;2.60;2.28;;;11.60;99.90;;;;;;4909702;29;20197;-79
2023/06/13 02:15:41;;;;;;;4.10;2.47;;;11.50;99.90;;;;;;4924660;29;20068;-79
2023/06/13 02:18:07;;;;;;;3.72;3.15;;;11.50;99.90;;;;;;4926587;29;20024;-79
2023/06/13 02:20:34;;;;;;;4.35;2.40;;;11.40;99.90;;;;;;4910878;29;20024;-78
2023/06/13 02:23:02;;;;;;;4.15;2.83;;;11.40;99.90;;;;;;4927652;29;20222;-80
2023/06/13 02:25:28;;;;;;;4.82;2.53;;;11.20;99.90;;;;;;4926365;29;20016;-79
2023/06/13 02:27:54;;;;;;;5.65;2.78;;;11.20;99.90;;;;;;4924782;29;20032;-79
2023/06/13 02:30:19;;;;;;;6.07;2.55;;;11.20;99.90;;;;;;4926302;29;20051;-79
2023/06/13 02:32:46;;;;;;;4.50;2.72;;;11.10;99.90;;;;;;4925400;29;20035;-79
2023/06/13 02:35:13;;;;;;;7.55;3.30;;;11.10;99.90;;;;;;4926089;29;20100;-80
2023/06/13 02:37:39;;;;;;;3.65;3.08;;;11.00;99.90;;;;;;4926416;29;20024;-79
2023/06/13 02:40:05;;;;;;;3.33;2.75;;;10.90;99.90;;;;;;4926946;29;20038;-79
2023/06/13 02:42:31;;;;;;;6.57;3.35;;;10.80;99.90;;;;;;4924031;29;20047;-80
2023/06/13 02:44:57;;;;;;;6.25;3.35;;;10.80;99.90;;;;;;4924723;29;20036;-79
2023/06/13 02:47:22;;;;;;;3.40;2.58;;;10.80;99.90;;;;;;4925212;29;20032;-79
2023/06/13 02:49:49;;;;;;;3.70;3.08;;;10.80;99.90;;;;;;4925665;29;20063;-79
2023/06/13 02:52:15;;;;;;;2.92;2.70;;;10.80;99.90;;;;;;4927558;29;20205;-80
2023/06/13 02:54:40;;;;;;;3.42;3.10;;;10.80;99.90;;;;;;4927053;29;20095;-79
2023/06/13 02:57:07;;;;;;;7.30;3.85;;;10.80;99.90;;;;;;4926283;29;20031;-80
2023/06/13 02:59:33;;;;;;;5.28;3.20;;;10.80;99.90;;;;;;4925985;29;20028;-79
2023/06/13 03:01:59;;;;;;;2.67;2.40;;;10.80;99.90;;;;;;4925938;29;20087;-79
2023/06/13 03:04:28;;;;;;;4.80;3.13;;;10.80;99.90;;;;;;4927477;29;20039;-80
2023/06/13 03:06:54;;;;;;;5.03;3.33;;;10.70;99.90;;;;;;4926596;29;20032;-80
2023/06/13 03:09:20;;;;;;;4.47;2.33;;;10.70;99.90;;;;;;4925846;29;20055;-79
2023/06/13 03:11:46;;;;;;;2.80;2.60;;;10.70;99.90;;;;;;4927169;29;20035;-79
2023/06/13 03:14:12;;;;;;;3.70;2.85;;;10.60;99.90;;;;;;4927617;29;20328;-79
2023/06/13 03:16:38;;;;;;;3.00;2.70;;;10.50;99.90;;;;;;4926477;29;20036;-80
2023/06/13 03:19:05;;;;;;;3.63;2.92;;;10.50;99.90;;;;;;4927391;29;20028;-80
2023/06/13 03:21:30;;;;;;;3.40;2.70;;;10.50;99.90;;;;;;4926625;29;20024;-79
2023/06/13 03:23:56;;;;;;;5.80;2.80;;;10.50;99.90;;;;;;4926898;29;20031;-79
2023/06/13 03:26:22;;;;;;;3.28;3.00;;;10.50;99.90;;;;;;4927523;29;20021;-79
2023/06/13 03:28:48;;;;;;;4.13;2.78;;;10.50;99.90;;;;;;4926145;29;20231;-79
2023/06/13 03:31:14;;;;;;;4.22;3.08;;;10.50;99.90;;;;;;4926835;29;20285;-79
2023/06/13 03:33:41;;;;;;;4.30;2.85;;;10.50;99.90;;;;;;4926300;29;20051;-79
2023/06/13 03:36:06;;;;;;;3.28;2.42;;;10.50;99.90;;;;;;4909774;29;20056;-79
2023/06/13 03:38:32;;;;;;;4.07;3.05;;;10.50;99.90;;;;;;4926625;29;20364;-79
2023/06/13 03:40:58;;;;;;;5.50;3.10;;;10.50;99.90;;;;;;4927792;29;20047;-80
2023/06/13 03:43:26;;;;;;;2.58;2.30;;;10.40;99.90;;;;;;4925392;29;20213;-78
2023/06/13 03:45:52;;;;;;;7.05;2.92;;;10.40;99.90;;;;;;4926962;29;20019;-79
2023/06/13 03:48:18;;;;;;;9.15;3.13;;;10.40;99.90;;;;;;4925565;29;20044;-78
2023/06/13 03:50:44;;;;;;;3.15;2.95;;;10.50;99.90;;;;;;4926942;29;20083;-79
2023/06/13 03:53:10;;;;;;;3.25;2.95;;;10.60;99.90;;;;;;4908777;29;20365;-79
2023/06/13 03:55:36;;;;;;;3.58;2.35;;;10.40;99.90;;;;;;4924309;29;20040;-78
2023/06/13 03:58:02;;;;;;;6.45;2.92;;;10.60;99.90;;;;;;4924544;29;20028;-78
2023/06/13 04:00:39;;;;;;;4.43;2.58;;;10.70;99.90;;;;;;4923789;29;20068;-79
2023/06/13 04:03:08;;;;;;;2.70;2.45;;;10.70;99.90;;;;;;4925072;29;20024;-79
2023/06/13 04:05:33;;;;;;;6.63;3.22;;;10.80;99.90;;;;;;4923504;29;20028;-79
2023/06/13 04:08:00;;;;;;;5.18;2.95;;;10.90;99.90;;;;;;4922854;29;20028;-79
2023/06/13 04:10:25;;;;;;;3.70;2.90;;;11.00;99.90;;;;;;4924995;29;20334;-79
2023/06/13 04:12:52;;;;;;;3.20;2.88;;;11.00;99.90;;;;;;4922564;29;20123;-79
2023/06/13 04:15:17;;;;;;;3.85;2.85;;;11.10;99.90;;;;;;4924457;29;20086;-79
2023/06/13 04:17:43;;;;;;;3.17;2.83;;;11.10;99.90;;;;;;4906810;29;20327;-80
2023/06/13 04:20:10;;;;;;;3.30;2.40;;;11.20;99.90;;;;;;4923148;29;20020;-79
2023/06/13 04:22:36;;;;;;;3.75;2.10;;;11.30;99.90;;;;;;4923508;29;20020;-79
2023/06/13 04:25:01;;;;;;;3.75;2.53;;;11.30;99.90;;;;;;4923487;29;20339;-79
2023/06/13 04:27:28;;;;;;;6.65;3.47;;;11.40;99.90;;;;;;4907929;29;20358;-80
2023/06/13 04:29:57;;;;;;;2.47;2.28;;;11.50;99.90;;;;;;4908124;29;20208;-80
2023/06/13 04:32:26;;;;;;;2.55;2.35;;;11.60;99.90;;;;;;4908405;29;20332;-79
2023/06/13 04:34:54;;;;;;;3.88;2.22;;;;;;;;;;4926264;29;20030;-80
2023/06/13 04:37:25;;;;;;;2.70;2.45;;;11.70;99.90;;;;;;4923976;29;20016;-80
2023/06/13 04:39:52;;;;;;;4.53;2.83;;;11.70;99.90;;;;;;4924846;29;20379;-80
2023/06/13 04:42:26;;;;;;;4.30;2.28;;;11.90;99.90;;;;;;4923514;29;20020;-78
2023/06/13 04:44:55;;;;;;;3.65;2.63;;;12.40;99.90;;;;;;4925257;29;20243;-79
2023/06/13 04:47:29;;;;;;;4.07;2.67;;;13.10;99.90;;;;;;4924747;29;20031;-79
2023/06/13 04:49:58;;;;;;;4.38;2.50;;;13.40;99.90;;;;;;4922582;29;20078;-79
2023/06/13 04:52:29;;;;;;;2.72;2.45;;;13.70;99.90;;;;;;4923120;29;20095;-79
2023/06/13 04:54:57;;;;;;;4.93;2.70;;;14.70;99.90;;;;;;4923278;29;20284;-79
2023/06/13 04:57:22;;;;;;;2.78;2.40;;;14.70;99.90;;;;;;4922246;29;20257;-79
2023/06/13 04:59:48;;;;;;;4.78;2.67;;;14.70;99.90;;;;;;4906585;29;20030;-79
2023/06/13 05:02:16;;;;;;;2.67;2.38;;;14.20;99.90;;;;;;4906473;29;20055;-79
2023/06/13 05:04:42;;;;;;;2.80;2.50;;;14.20;99.90;;;;;;4922887;29;20245;-79
2023/06/13 05:07:08;;;;;;;2.80;2.38;;;14.10;99.90;;;;;;4905833;29;20301;-79
2023/06/13 05:09:34;;;;;;;3.00;2.33;;;14.00;99.90;;;;;;4922098;29;20032;-80
2023/06/13 05:12:00;;;;;;;2.70;2.25;;;14.00;99.90;;;;;;4921789;29;20038;-79
2023/06/13 05:14:25;;;;;;;2.75;2.50;;;13.90;99.90;;;;;;4905918;29;20047;-80
2023/06/13 05:16:55;;;;;;;5.10;2.30;;;13.90;99.90;;;;;;4922481;29;20020;-79
2023/06/13 05:19:21;;;;;;;3.53;2.25;;;13.90;99.90;;;;;;4906529;29;20178;-79
2023/06/13 05:21:46;;;;;;;4.13;2.60;;;14.00;99.90;;;;;;4906377;29;20257;-79
2023/06/13 05:24:13;;;;;;;4.25;2.42;;;14.10;99.90;;;;;;4923266;29;20047;-79
2023/06/13 05:26:39;;;;;;;2.33;2.13;;;14.20;99.90;;;;;;4923300;29;20289;-80
2023/06/13 05:29:05;;;;;;;4.22;2.42;;;14.30;99.90;;;;;;4921661;29;20032;-80
2023/06/13 05:31:33;;;;;;;4.55;2.97;;;14.40;99.90;;;;;;4923574;29;20024;-79
2023/06/13 05:34:00;;;;;;;2.38;2.08;;;14.60;99.90;;;;;;4919202;29;20032;-79
2023/06/13 05:36:26;;;;;;;2.53;2.33;;;14.70;99.90;;;;;;4922765;29;20032;-79
2023/06/13 05:38:54;;;;;;;2.85;2.50;;;14.90;99.90;;;;;;4924220;29;20024;-79
2023/06/13 05:41:19;;;;;;;4.35;2.40;;;15.00;99.90;;;;;;4922645;29;20023;-80
2023/06/13 05:43:45;;;;;;;2.83;2.33;;;15.20;99.90;;;;;;4905058;29;20032;-79
2023/06/13 05:46:13;;;;;;;3.50;2.67;;;15.40;99.90;;;;;;4922701;29;20253;-81
2023/06/13 05:48:39;;;;;;;4.75;2.38;;;15.60;99.90;;;;;;4920806;29;20118;-79
2023/06/13 05:51:05;;;;;;;5.05;2.55;;;15.70;99.90;;;;;;4923156;29;20336;-80
2023/06/13 05:53:31;;;;;;;2.83;2.00;;;16.00;99.90;;;;;;4924638;29;20050;-78
2023/06/13 05:55:56;;;;;;;3.58;2.50;;;16.30;99.90;;;;;;4924704;29;20046;-80
2023/06/13 05:58:25;;;;;;;3.88;2.60;;;16.50;99.90;;;;;;4907351;29;20030;-77
2023/06/13 06:00:52;;;;;;;3.10;2.40;;;16.50;99.90;;;;;;4924163;29;20033;-76
2023/06/13 06:03:18;;;;;;;6.70;2.75;;;16.70;99.90;;;;;;4924623;29;20075;-77
2023/06/13 06:05:44;;;;;;;3.30;2.30;;;17.00;99.30;;;;;;4924799;29;20040;-78
2023/06/13 06:08:11;;;;;;;4.22;2.20;;;17.30;96.80;;;;;;4924125;29;20020;-78
2023/06/13 06:10:37;;;;;;;2.75;2.17;;;17.60;95.80;;;;;;4923050;29;20016;-77
2023/06/13 06:13:03;;;;;;;3.45;2.42;;;17.60;95.30;;;;;;4906998;29;20400;-77
2023/06/13 06:15:29;;;;;;;4.78;2.58;;;17.60;95.30;;;;;;4926608;29;20063;-80
2023/06/13 06:17:55;;;;;;;9.48;2.47;;;17.90;95.30;;;;;;4908472;29;20068;-79
2023/06/13 06:20:20;;;;;;;5.82;2.80;;;18.10;93.10;;;;;;4924546;29;20027;-81
2023/06/13 06:22:46;;;;;;;5.10;2.53;;;18.30;92.00;;;;;;4911182;29;20312;-79
2023/06/13 06:25:19;;;;;;;5.32;2.78;;;18.20;91.40;;;;;;4909736;29;20032;-80
2023/06/13 06:27:47;;;;;;;5.38;2.65;;;18.10;93.70;;;;;;4922541;29;20028;-81
2023/06/13 06:30:14;;;;;;;4.30;3.03;;;18.00;90.90;;;;;;4933544;29;20020;-83
2023/06/13 06:32:41;;;;;;;4.13;2.65;;;18.00;91.10;;;;;;4934837;29;20075;-80
2023/06/13 06:35:07;;;;;;;4.10;2.78;;;18.00;90.70;;;;;;4934361;29;20056;-81
2023/06/13 06:37:33;;;;;;;5.85;3.00;;;18.10;90.50;;;;;;4932252;29;20376;-82
2023/06/13 06:39:59;;;;;;;4.57;3.47;;;18.60;90.10;;;;;;4939772;29;20028;-80
2023/06/13 06:42:25;;;;;;;6.18;2.60;;;19.30;85.60;;;;;;4944953;29;20035;-81
2023/06/13 06:44:51;;;;;;;3.83;2.22;;;20.40;82.50;;;;;;4945791;29;20059;-80
2023/06/13 06:47:17;;;;;;;4.63;2.75;;;21.20;76.40;;;;;;4943959;29;20240;-77
2023/06/13 06:49:43;;;;;;;4.10;2.10;;;22.10;73.40;;;;;;4944072;29;20361;-79
2023/06/13 06:52:08;;;;;;;4.63;2.40;;;22.90;70.00;;;;;;4963406;29;20181;-76
2023/06/13 06:54:34;;;;;;;5.38;3.53;;;24.10;65.90;;;;;;4950365;29;20047;-80
2023/06/13 06:57:03;;;;;;;4.35;2.92;;;24.50;61.90;;;;;;4928380;29;20028;-80
2023/06/13 06:59:29;;;;;;;4.15;2.72;;;24.50;59.90;;;;;;4943997;29;20043;-80
2023/06/13 07:01:55;;;;;;;3.28;2.97;;;24.00;60.90;;;;;;4947552;29;20368;-82
2023/06/13 07:04:22;;;;;;;7.15;3.13;;;23.70;60.20;;;;;;4949043;29;20031;-82
2023/06/13 07:06:48;;;;;;;2.85;2.40;;;23.20;59.20;;;;;;4953309;29;20031;-82
2023/06/13 07:09:14;;;;;;;5.53;2.78;;;23.30;60.50;;;;;;4949287;29;20023;-81
2023/06/13 07:11:40;;;;;;;5.07;3.05;;;23.30;60.10;;;;;;4945993;29;20019;-82
2023/06/13 07:14:06;;;;;;;3.67;2.75;;;23.00;60.80;;;;;;4964155;29;20031;-82
2023/06/13 07:16:32;;;;;;;6.43;2.88;;;23.10;60.60;;;;;;4932844;29;20016;-80
2023/06/13 07:18:57;;;;;;;5.40;3.47;;;23.60;61.40;;;;;;4927578;29;20085;-78
2023/06/13 07:21:23;;;;;;;3.97;3.03;;;23.90;60.10;;;;;;4945586;29;20051;-81
2023/06/13 07:23:49;;;;;;;6.03;3.15;;;23.70;59.50;;;;;;4962587;29;20030;-80
2023/06/13 07:26:15;;;;;;;6.03;3.08;;;24.60;58.10;;;;;;4943852;29;20565;-81
2023/06/13 07:28:41;;;;;;;6.63;3.35;;;24.60;57.70;;;;;;4942687;29;20051;-79
2023/06/13 07:31:06;;;;;;;6.15;3.17;;;24.10;57.60;;;;;;4943435;29;20031;-79
2023/06/13 07:33:32;;;;;;;4.18;2.45;;;24.10;58.70;;;;;;4942472;29;20047;-80
2023/06/13 07:35:58;;;;;;;6.43;2.63;;;23.70;60.20;;;;;;4949847;29;20024;-81
2023/06/13 07:38:26;;;;;;;4.32;3.53;;;23.50;59.70;;;;;;4946929;29;20032;-81
2023/06/13 07:40:52;;;;;;;6.45;3.22;;;23.40;59.00;;;;;;4943955;29;20023;-81
2023/06/13 07:43:18;;;;;;;4.97;3.05;;;23.90;58.20;;;;;;4945490;29;20059;-82
2023/06/13 07:45:46;;;;;;;3.53;3.22;;;23.80;58.80;;;;;;4942386;29;20228;-82
2023/06/13 07:48:12;;;;;;;5.28;3.17;;;24.40;58.00;;;;;;4938176;29;20052;-83
2023/06/13 07:50:38;;;;;;;3.78;3.10;;;24.60;56.90;;;;;;4912345;29;20351;-84
2023/06/13 07:53:03;;;;;;;4.75;2.85;;;24.30;59.10;;;;;;4888966;29;20152;-79
2023/06/13 07:55:29;;;;;;;6.22;2.95;;;24.50;57.70;;;;;;4905103;29;20377;-83
2023/06/13 07:57:55;;;;;;;5.40;2.90;;;;;;;;;;4928920;29;20067;-80
2023/06/13 08:00:20;;;;;;;11.48;7.55;;;23.30;56.60;;;;;;4923303;29;20052;-82
2023/06/13 08:02:47;;;;;;;4.35;3.60;;;23.60;58.10;;;;;;4922770;29;20375;-81
2023/06/13 08:05:14;;;;;;;4.93;2.72;;;24.10;55.60;;;;;;4923869;29;20079;-85
2023/06/13 08:07:39;;;;;;;6.65;3.03;;;24.10;56.30;;;;;;4910952;29;20081;-81
2023/06/13 08:10:08;;;;;;;3.30;3.00;;;23.90;57.70;;;;;;4913354;29;20352;-82
2023/06/13 08:12:34;;;;;;;8.45;3.40;;;23.40;56.80;;;;;;4923180;29;20019;-80
2023/06/13 08:15:00;;;;;;;5.65;2.63;;;23.40;58.50;;;;;;4923527;29;20038;-79
2023/06/13 08:17:26;;;;;;;6.45;3.10;;;23.50;57.20;;;;;;4923993;29;20036;-79
2023/06/13 08:19:52;;;;;;;4.38;3.38;;;;;;;;;;4923552;29;20031;-83
2023/06/13 08:22:20;;;;;;;8.52;2.90;;;24.20;56.30;;;;;;4926923;29;20327;-83
2023/06/13 08:24:46;;;;;;;4.78;2.92;;;;;;;;;;4906990;29;20043;-81
2023/06/13 08:27:16;;;;;;;5.82;2.58;;;24.30;55.80;;;;;;4921403;29;20039;-82
2023/06/13 08:29:42;;;;;;;8.48;3.13;;;24.10;57.00;;;;;;4920795;29;20035;-81
2023/06/13 08:32:08;;;;;;;3.08;2.47;;;24.00;57.70;;;;;;4903859;29;20352;-79
2023/06/13 08:34:34;;;;;;;7.35;3.33;;;24.00;57.90;;;;;;4921386;29;20372;-82
2023/06/13 08:37:00;;;;;;;3.03;2.50;;;;;;;;;;4907698;29;20020;-85
2023/06/13 08:39:26;;;;;;;2.83;2.55;;;24.10;56.70;;;;;;4923567;29;20102;-81
2023/06/13 08:41:53;;;;;;;6.78;3.20;;;24.10;58.60;;;;;;4928229;29;20039;-81
2023/06/13 08:44:19;;;;;;;4.63;3.10;;;24.10;57.20;;;;;;4923312;29;20079;-79
2023/06/13 08:46:44;;;;;;;3.35;2.67;;;24.50;56.70;;;;;;4905769;29;20028;-83
2023/06/13 08:49:10;;;;;;;3.78;3.15;;;24.80;56.00;;;;;;4934419;29;20085;-82
2023/06/13 08:51:37;;;;;;;4.35;3.03;;;24.50;57.00;;;;;;4941519;29;20134;-82
2023/06/13 08:54:04;;;;;;;5.75;3.33;;;24.20;56.40;;;;;;4941970;29;20272;-80
2023/06/13 08:56:37;;;;;;;4.80;3.50;;;23.40;56.40;;;;;;4941523;29;20043;-82
2023/06/13 08:59:13;;;;;;;7.15;3.22;;;23.40;57.00;;;;;;4943824;29;20036;-79
2023/06/13 09:01:41;;;;;;;4.45;3.53;;;23.70;57.00;;;;;;4942873;29;20043;-80
2023/06/13 09:04:08;;;;;;;10.25;3.63;;;23.70;57.60;;;;;;4943192;29;20055;-79
2023/06/13 09:06:37;;;;;;;7.28;3.30;;;23.90;56.70;;;;;;4941071;29;20035;-79
2023/06/13 09:09:06;;;;;;;5.47;3.08;;;24.00;56.60;;;;;;4940838;29;20106;-82
2023/06/13 09:11:33;;;;;;;6.00;3.38;;;24.20;56.70;;;;;;4940316;29;20024;-81
2023/06/13 09:14:01;;;;;;;2.65;2.45;;;24.80;55.30;;;;;;4940297;29;20043;-77
2023/06/13 09:16:29;;;;;;;4.17;3.03;;;25.30;54.40;;;;;;4940732;29;20019;-77
2023/06/13 09:18:56;;;;;;;5.28;3.28;;;25.70;52.90;;;;;;4940604;29;20027;-78
2023/06/13 09:21:22;;;;;;;9.55;2.90;;;26.10;53.20;;;;;;4940725;29;20026;-77
2023/06/13 09:23:48;;;;;;;5.82;3.38;;;26.00;52.50;;;;;;4926631;29;20114;-79
2023/06/13 09:26:17;;;;;;;4.82;2.85;;;25.70;53.00;;;;;;4962203;28;20027;-80
2023/06/13 09:28:45;;;;;;;5.15;3.10;;;25.80;54.60;;;;;;4964336;29;20052;-80
2023/06/13 09:31:11;;;;;;;5.55;3.28;;;25.40;51.90;;;;;;4925642;29;20062;-79
2023/06/13 09:33:38;;;;;;;4.10;3.70;;;25.00;53.30;;;;;;4945628;29;20252;-78
2023/06/13 09:36:07;;;;;;;5.65;3.75;;;24.60;53.50;;;;;;4945808;29;20067;-79
2023/06/13 09:38:35;;;;;;;4.43;3.53;;;24.50;53.10;;;;;;4945173;29;20328;-78
2023/06/13 09:41:04;;;;;;;5.50;2.95;;;25.10;52.60;;;;;;4943376;29;20130;-77
2023/06/13 09:43:30;;;;;;;6.80;2.72;;;25.60;52.90;;;;;;4945357;29;20032;-77
2023/06/13 09:45:56;;;;;;;4.18;3.20;;;26.10;51.10;;;;;;4943508;29;20386;-78
2023/06/13 09:48:22;;;;;;;5.43;3.13;;;26.00;52.40;;;;;;4943861;29;20059;-80
2023/06/13 09:50:51;;;;;;;3.63;3.08;;;25.70;52.00;;;;;;4943759;29;20043;-76
2023/06/13 09:53:17;;;;;;;3.40;3.10;;;26.10;51.80;;;;;;4944254;29;20050;-77
2023/06/13 09:55:43;;;;;;;6.60;2.97;;;26.30;52.00;;;;;;4944579;29;20062;-76
2023/06/13 09:58:09;;;;;;;3.88;3.05;;;25.80;51.70;;;;;;4944061;29;20035;-77
2023/06/13 10:00:35;;;;;;;8.73;3.45;;;25.30;52.80;;;;;;4947321;29;20019;-78
2023/06/13 10:03:02;;;;;;;5.65;2.90;;;25.00;52.10;;;;;;4944451;29;20051;-78
2023/06/13 10:05:28;;;;;;;4.80;3.05;;;25.00;51.30;;;;;;4943485;29;20212;-79
2023/06/13 10:07:55;;;;;;;4.20;2.53;;;25.30;54.50;;;;;;4943452;29;20024;-78
2023/06/13 10:10:20;;;;;;;3.58;2.97;;;25.70;51.60;;;;;;4943288;29;20088;-77
2023/06/13 10:13:10;;;;;;;4.35;2.83;;;26.80;50.30;;;;;;4943837;29;20028;-76
2023/06/13 10:15:47;;;;;;;7.28;2.88;;;26.80;50.90;;;;;;4942767;29;20100;-76
2023/06/13 10:18:19;;;;;;;3.92;2.90;;;27.50;49.70;;;;;;4942801;29;20267;-78
2023/06/13 10:20:48;;;;;;;6.55;2.53;;;27.40;51.10;;;;;;4943426;29;20035;-76
2023/06/13 10:23:15;;;;;;;6.05;3.30;;;26.50;49.40;;;;;;4944412;29;20231;-77
2023/06/13 10:25:44;;;;;;;10.43;2.85;;;26.70;50.30;;;;;;4958973;29;20047;-76
2023/06/13 10:28:23;;;;;;;5.57;2.78;;;26.00;49.50;;;;;;4964229;29;20311;-77
2023/06/13 10:31:10;;;;;;;3.40;2.70;;;25.80;50.50;;;;;;4960853;29;20070;-73
2023/06/13 10:33:57;;;;;;;3.97;2.85;;;25.90;50.30;;;;;;4943740;29;20032;-78
2023/06/13 10:36:27;;;;;;;5.63;2.60;;;26.40;52.00;;;;;;4924157;29;20044;-80
2023/06/13 10:39:18;;;;;;;7.80;2.63;;;26.90;50.00;;;;;;4924378;29;20031;-77
2023/06/13 10:41:53;;;;;;;5.22;3.35;;;26.90;51.10;;;;;;4925795;29;20095;-80
2023/06/13 10:44:21;;;;;;;3.72;3.22;;;27.00;50.80;;;;;;4928796;29;20095;-79
2023/06/13 10:46:48;;;;;;;6.18;3.30;;;26.90;49.60;;;;;;4943808;29;20102;-76
2023/06/13 10:49:16;;;;;;;2.67;2.20;;;26.80;51.40;;;;;;4944947;29;20052;-78
2023/06/13 10:51:43;;;;;;;2.70;2.50;;;27.30;50.10;;;;;;4943429;29;20028;-78
2023/06/13 10:54:13;;;;;;;2.72;2.53;;;28.20;50.50;;;;;;4944145;29;20039;-78
2023/06/13 10:56:43;;;;;;;4.57;2.42;;;27.90;47.60;;;;;;4944240;29;20024;-82
2023/06/13 10:59:10;;;;;;;4.90;2.58;;;27.30;50.50;;;;;;4944819;29;20078;-78
2023/06/13 11:01:38;;;;;;;3.75;2.58;;;27.00;49.10;;;;;;4943600;29;20016;-77
2023/06/13 11:04:12;;;;;;;6.70;3.30;;;27.30;48.90;;;;;;4944908;29;20031;-78
2023/06/13 11:06:40;;;;;;;3.83;2.65;;;27.10;49.20;;;;;;4943638;29;20189;-77
2023/06/13 11:09:18;;;;;;;5.20;2.95;;;27.00;50.30;;;;;;4949581;29;20070;-77
2023/06/13 11:11:52;;;;;;;3.90;2.50;;;27.40;49.00;;;;;;4961894;29;20315;-75
2023/06/13 11:14:31;;;;;;;5.80;2.90;;;28.10;49.80;;;;;;4961194;29;20110;-76
2023/06/13 11:16:57;;;;;;;4.70;2.90;;;28.00;48.00;;;;;;4963291;29;20325;-77
2023/06/13 11:19:27;;;;;;;2.97;2.63;;;28.40;47.80;;;;;;4962751;29;20039;-75
2023/06/13 11:22:02;;;;;;;6.45;2.90;;;29.40;47.30;;;;;;4956417;29;20027;-75
2023/06/13 11:24:32;;;;;;;5.57;2.65;;;30.40;46.80;;;;;;4942406;29;20028;-79
2023/06/13 11:27:03;;;;;;;4.50;2.72;;;29.60;46.70;;;;;;4944179;29;20087;-76
2023/06/13 11:29:30;;;;;;;10.77;3.33;;;29.90;45.50;;;;;;4943497;29;20099;-78
2023/06/13 11:31:56;;;;;;;4.40;3.13;;;30.30;45.20;;;;;;4943224;29;20028;-78
2023/06/13 11:34:38;;;;;;;6.95;2.60;;;29.70;46.80;;;;;;4942325;29;20403;-77
2023/06/13 11:37:16;;;;;;;3.42;3.10;;;29.30;47.60;;;;;;4942517;29;20034;-74
2023/06/13 11:39:47;;;;;;;4.78;3.33;;;29.00;47.80;;;;;;4942388;29;20199;-75
2023/06/13 11:42:13;;;;;;;2.97;2.47;;;29.10;47.10;;;;;;4943737;29;20098;-75
2023/06/13 11:44:39;;;;;;;3.20;2.55;;;28.60;49.40;;;;;;4942376;29;20047;-77
2023/06/13 11:47:05;;;;;;;6.95;2.88;;;28.10;49.60;;;;;;4942209;29;20030;-79
2023/06/13 11:49:30;;;;;;;5.25;3.10;;;28.20;49.30;;;;;;4942636;29;20115;-77
2023/06/13 11:51:56;;;;;;;3.78;3.47;;;28.60;48.20;;;;;;4942258;29;20219;-77
2023/06/13 11:54:31;;;;;;;3.15;2.85;;;28.70;46.80;;;;;;4942652;29;20051;-77
2023/06/13 11:56:56;;;;;;;4.45;2.97;;;29.40;48.40;;;;;;4941284;29;20028;-77
2023/06/13 11:59:24;;;;;;;5.72;3.28;;;29.20;48.60;;;;;;4941587;29;20029;-77
2023/06/13 12:01:54;;;;;;;3.80;3.30;;;29.70;46.70;;;;;;4943429;29;20107;-77
2023/06/13 12:04:23;;;;;;;3.47;3.10;;;30.00;46.20;;;;;;4942978;29;20028;-77
2023/06/13 12:06:50;;;;;;;5.88;3.15;;;30.70;45.40;;;;;;4942774;29;20043;-76
2023/06/13 12:09:17;;;;;;;2.97;2.60;;;31.00;46.40;;;;;;4942880;29;20031;-76
2023/06/13 12:11:43;;;;;;;7.55;3.53;;;29.10;46.80;;;;;;4942443;29;20028;-76
2023/06/13 12:14:09;;;;;;;7.07;3.30;;;29.40;47.40;;;;;;4940573;29;20063;-76
2023/06/13 12:16:36;;;;;;;5.45;3.35;;;29.00;48.20;;;;;;4942471;29;20027;-76
2023/06/13 12:19:04;;;;;;;6.55;3.38;;;29.30;47.70;;;;;;4943545;29;20035;-77
2023/06/13 12:21:32;;;;;;;3.67;2.67;;;29.10;47.30;;;;;;4940022;29;20016;-77
2023/06/13 12:24:01;;;;;;;5.50;3.03;;;29.60;48.10;;;;;;4941884;29;20023;-78
2023/06/13 12:26:30;;;;;;;4.05;2.95;;;28.90;47.30;;;;;;4941417;29;20067;-77
2023/06/13 12:28:59;;;;;;;8.07;3.08;;;29.80;48.60;;;;;;4941900;29;20342;-76
2023/06/13 12:31:35;;;;;;;4.90;3.40;;;30.60;46.20;;;;;;4941585;29;20016;-77
2023/06/13 12:34:26;;;;;;;5.57;3.35;;;30.20;46.50;;;;;;4943011;29;20047;-76
2023/06/13 12:36:54;;;;;;;6.75;3.10;;;30.10;45.80;;;;;;4942918;29;20031;-77
2023/06/13 12:39:21;;;;;;;4.00;2.90;;;31.10;46.30;;;;;;4941712;29;20260;-77
2023/06/13 12:41:52;;;;;;;5.55;3.13;;;30.50;45.20;;;;;;4942148;29;20031;-76
2023/06/13 12:44:20;;;;;;;4.05;2.70;;;29.90;46.30;;;;;;4941123;29;20032;-76
2023/06/13 12:46:47;;;;;;;3.55;2.80;;;30.10;46.10;;;;;;4940971;29;20026;-76
2023/06/13 12:49:14;;;;;;;5.53;3.47;;;30.10;46.00;;;;;;4940920;29;20059;-76
2023/06/13 12:51:58;;;;;;;3.33;2.67;;;30.70;45.30;;;;;;4941052;29;20024;-77